sensor_id;sensor_type;location;lat;lon;timestamp;temperature;humidity
8402;DHT22;4238;48.404;9.498;2024-02-28T05:00:43;4.80;99.90
8402;DHT22;4238;48.404;9.498;2024-02-28T05:03:10;4.90;99.90
8402;DHT22;4238;48.404;9.498;2024-02-28T05:05:37;5.00;99.90
8402;DHT22;4238;48.404;9.498;2024-02-28T05:08:04;5.00;99.90
8402;DHT22;4238;48.404;9.498;2024-02-28T05:10:31;5.00;99.90
8402;DHT22;4238;48.404;9.498;2024-02-28T05:12:59;4.90;99.90
8402;DHT22;4238;48.404;9.498;2024-02-28T05:15:28;4.90;99.90
8402;DHT22;4238;48.404;9.498;2024-02-28T05:17:56;4.90;99.90
8402;DHT22;4238;48.404;9.498;2024-02-28T05:20:23;5.00;99.90
8402;DHT22;4238;48.404;9.498;2024-02-28T05:22:50;5.20;99.90
8402;DHT22;4238;48.404;9.498;2024-02-28T05:25:17;5.00;99.90
8402;DHT22;4238;48.404;9.498;2024-02-28T05:27:44;4.90;99.90
8402;DHT22;4238;48.404;9.498;2024-02-28T05:30:11;4.90;99.90
8402;DHT22;4238;48.404;9.498;2024-02-28T05:32:38;4.80;99.90
8402;DHT22;4238;48.404;9.498;2024-02-28T05:35:07;4.70;99.90
8402;DHT22;4238;48.404;9.498;2024-02-28T05:37:37;4.70;99.90
8402;DHT22;4238;48.404;9.498;2024-02-28T05:40:07;4.70;99.90
8402;DHT22;4238;48.404;9.498;2024-02-28T05:42:34;4.60;99.90
8402;DHT22;4238;48.404;9.498;2024-02-28T05:45:01;4.60;99.90
8402;DHT22;4238;48.404;9.498;2024-02-28T05:47:28;4.70;99.90
8402;DHT22;4238;48.404;9.498;2024-02-28T05:49:55;4.70;99.90
8402;DHT22;4238;48.404;9.498;2024-02-28T05:52:25;4.80;99.90
8402;DHT22;4238;48.404;9.498;2024-02-28T05:54:52;4.90;99.90
8402;DHT22;4238;48.404;9.498;2024-02-28T05:57:19;5.00;99.90
8402;DHT22;4238;48.404;9.498;2024-02-28T05:59:46;4.90;99.90
8402;DHT22;4238;48.404;9.498;2024-02-28T06:02:13;4.80;99.90
8402;DHT22;4238;48.404;9.498;2024-02-28T06:04:40;4.90;99.90
8402;DHT22;4238;48.404;9.498;2024-02-28T06:07:07;5.00;99.90
8402;DHT22;4238;48.404;9.498;2024-02-28T06:09:35;5.00;99.90
8402;DHT22;4238;48.404;9.498;2024-02-28T06:12:02;4.90;99.90
8402;DHT22;4238;48.404;9.498;2024-02-28T06:14:29;4.80;99.90
8402;DHT22;4238;48.404;9.498;2024-02-28T06:16:56;4.90;99.90
8402;DHT22;4238;48.404;9.498;2024-02-28T06:19:23;4.90;99.90
8402;DHT22;4238;48.404;9.498;2024-02-28T06:21:50;5.00;99.90
8402;DHT22;4238;48.404;9.498;2024-02-28T06:24:17;5.10;99.90
8402;DHT22;4238;48.404;9.498;2024-02-28T06:26:45;5.20;99.90
8402;DHT22;4238;48.404;9.498;2024-02-28T06:29:12;5.20;99.90
8402;DHT22;4238;48.404;9.498;2024-02-28T06:31:39;5.20;99.90
8402;DHT22;4238;48.404;9.498;2024-02-28T06:34:06;5.20;99.90
8402;DHT22;4238;48.404;9.498;2024-02-28T06:36:33;5.20;99.90
8402;DHT22;4238;48.404;9.498;2024-02-28T06:39:00;5.30;99.90
8402;DHT22;4238;48.404;9.498;2024-02-28T06:41:27;5.10;99.90
8402;DHT22;4238;48.404;9.498;2024-02-28T06:43:55;5.00;99.90
8402;DHT22;4238;48.404;9.498;2024-02-28T06:46:22;4.90;99.90
8402;DHT22;4238;48.404;9.498;2024-02-28T06:48:48;4.90;99.90
8402;DHT22;4238;48.404;9.498;2024-02-28T06:51:16;4.90;99.90
8402;DHT22;4238;48.404;9.498;2024-02-28T06:53:43;4.90;99.90
8402;DHT22;4238;48.404;9.498;2024-02-28T06:56:10;4.90;99.90
8402;DHT22;4238;48.404;9.498;2024-02-28T06:58:37;4.80;99.90
8402;DHT22;4238;48.404;9.498;2024-02-28T07:01:05;4.90;99.90
8402;DHT22;4238;48.404;9.498;2024-02-28T07:03:32;4.70;99.90
8402;DHT22;4238;48.404;9.498;2024-02-28T07:05:59;4.70;99.90
8402;DHT22;4238;48.404;9.498;2024-02-28T07:08:25;4.80;99.90
8402;DHT22;4238;48.404;9.498;2024-02-28T07:10:52;4.90;99.90
8402;DHT22;4238;48.404;9.498;2024-02-28T07:13:20;4.80;99.90
8402;DHT22;4238;48.404;9.498;2024-02-28T07:15:47;4.60;99.90
8402;DHT22;4238;48.404;9.498;2024-02-28T07:18:15;4.60;99.90
8402;DHT22;4238;48.404;9.498;2024-02-28T07:20:42;4.50;99.90
8402;DHT22;4238;48.404;9.498;2024-02-28T07:23:09;4.50;99.90
8402;DHT22;4238;48.404;9.498;2024-02-28T07:25:36;4.70;99.90
8402;DHT22;4238;48.404;9.498;2024-02-28T07:28:04;4.90;99.90
8402;DHT22;4238;48.404;9.498;2024-02-28T07:30:30;5.00;99.90
8402;DHT22;4238;48.404;9.498;2024-02-28T07:32:57;5.00;99.90
8402;DHT22;4238;48.404;9.498;2024-02-28T07:35:25;5.10;99.90
8402;DHT22;4238;48.404;9.498;2024-02-28T07:37:52;5.00;99.90
8402;DHT22;4238;48.404;9.498;2024-02-28T07:40:19;5.10;99.90
8402;DHT22;4238;48.404;9.498;2024-02-28T07:42:46;5.20;99.90
8402;DHT22;4238;48.404;9.498;2024-02-28T07:45:13;5.10;99.90
8402;DHT22;4238;48.404;9.498;2024-02-28T07:47:40;4.90;99.90
8402;DHT22;4238;48.404;9.498;2024-02-28T07:50:07;5.00;99.90
8402;DHT22;4238;48.404;9.498;2024-02-28T07:52:36;5.10;99.90
8402;DHT22;4238;48.404;9.498;2024-02-28T07:55:03;5.20;99.90
8402;DHT22;4238;48.404;9.498;2024-02-28T07:57:31;5.20;99.90
8402;DHT22;4238;48.404;9.498;2024-02-28T07:59:58;5.20;99.90
8402;DHT22;4238;48.404;9.498;2024-02-28T08:02:25;5.20;99.90
8402;DHT22;4238;48.404;9.498;2024-02-28T08:04:52;5.30;99.90
8402;DHT22;4238;48.404;9.498;2024-02-28T08:07:19;5.50;94.90
8402;DHT22;4238;48.404;9.498;2024-02-28T08:09:47;5.40;91.70
8402;DHT22;4238;48.404;9.498;2024-02-28T08:12:14;5.50;95.30
8402;DHT22;4238;48.404;9.498;2024-02-28T08:14:41;5.40;92.40
8402;DHT22;4238;48.404;9.498;2024-02-28T08:17:08;5.40;92.70
8402;DHT22;4238;48.404;9.498;2024-02-28T08:19:34;5.50;87.90
8402;DHT22;4238;48.404;9.498;2024-02-28T08:22:01;5.50;94.70
8402;DHT22;4238;48.404;9.498;2024-02-28T08:24:28;5.50;94.00
8402;DHT22;4238;48.404;9.498;2024-02-28T08:26:57;5.60;92.60
8402;DHT22;4238;48.404;9.498;2024-02-28T08:29:23;5.70;91.90
8402;DHT22;4238;48.404;9.498;2024-02-28T08:31:51;5.90;81.40
8402;DHT22;4238;48.404;9.498;2024-02-28T08:34:18;5.80;73.10
8402;DHT22;4238;48.404;9.498;2024-02-28T08:36:45;5.90;74.40
8402;DHT22;4238;48.404;9.498;2024-02-28T08:39:11;6.10;62.60
8402;DHT22;4238;48.404;9.498;2024-02-28T08:41:38;6.00;52.20
8402;DHT22;4238;48.404;9.498;2024-02-28T08:44:07;6.00;56.90
8402;DHT22;4238;48.404;9.498;2024-02-28T08:46:34;6.10;55.20
8402;DHT22;4238;48.404;9.498;2024-02-28T08:49:00;6.20;51.30
8402;DHT22;4238;48.404;9.498;2024-02-28T08:51:31;6.10;45.60
8402;DHT22;4238;48.404;9.498;2024-02-28T08:53:58;6.10;40.30
8402;DHT22;4238;48.404;9.498;2024-02-28T08:56:25;6.00;54.60
8402;DHT22;4238;48.404;9.498;2024-02-28T08:58:52;6.00;46.90
8402;DHT22;4238;48.404;9.498;2024-02-28T09:01:20;5.80;62.70
8402;DHT22;4238;48.404;9.498;2024-02-28T09:03:47;5.90;66.50
8402;DHT22;4238;48.404;9.498;2024-02-28T09:06:14;6.00;60.60
8402;DHT22;4238;48.404;9.498;2024-02-28T09:08:41;6.10;51.20
8402;DHT22;4238;48.404;9.498;2024-02-28T09:11:08;6.20;49.40
8402;DHT22;4238;48.404;9.498;2024-02-28T09:13:35;6.00;43.80
8402;DHT22;4238;48.404;9.498;2024-02-28T09:16:02;6.10;50.90
8402;DHT22;4238;48.404;9.498;2024-02-28T09:18:30;6.20;50.50
8402;DHT22;4238;48.404;9.498;2024-02-28T09:20:57;6.30;49.20
8402;DHT22;4238;48.404;9.498;2024-02-28T09:23:24;6.40;27.10
8402;DHT22;4238;48.404;9.498;2024-02-28T09:25:51;6.50;25.70
8402;DHT22;4238;48.404;9.498;2024-02-28T09:28:18;6.40;10.00
8402;DHT22;4238;48.404;9.498;2024-02-28T09:30:45;6.40;17.20
8402;DHT22;4238;48.404;9.498;2024-02-28T09:33:13;6.50;30.60
8402;DHT22;4238;48.404;9.498;2024-02-28T09:35:46;6.70;34.10
8402;DHT22;4238;48.404;9.498;2024-02-28T09:38:13;6.90;22.30
8402;DHT22;4238;48.404;9.498;2024-02-28T09:40:40;7.00;20.20
8402;DHT22;4238;48.404;9.498;2024-02-28T09:43:14;7.10;19.20
8402;DHT22;4238;48.404;9.498;2024-02-28T09:45:42;6.70;21.70
8402;DHT22;4238;48.404;9.498;2024-02-28T09:48:09;6.60;34.30
8402;DHT22;4238;48.404;9.498;2024-02-28T09:50:37;6.60;41.00
8402;DHT22;4238;48.404;9.498;2024-02-28T09:53:06;6.80;32.60
8402;DHT22;4238;48.404;9.498;2024-02-28T09:55:33;6.80;30.80
8402;DHT22;4238;48.404;9.498;2024-02-28T09:58:01;6.90;34.70
8402;DHT22;4238;48.404;9.498;2024-02-28T10:00:28;6.90;24.80
8402;DHT22;4238;48.404;9.498;2024-02-28T10:02:57;6.60;26.60
8402;DHT22;4238;48.404;9.498;2024-02-28T10:05:25;6.40;36.30
8402;DHT22;4238;48.404;9.498;2024-02-28T10:07:54;6.20;57.70
8402;DHT22;4238;48.404;9.498;2024-02-28T10:10:23;6.00;61.80
8402;DHT22;4238;48.404;9.498;2024-02-28T10:12:50;6.20;76.30
8402;DHT22;4238;48.404;9.498;2024-02-28T10:15:17;6.30;63.40
8402;DHT22;4238;48.404;9.498;2024-02-28T10:17:44;6.50;52.20
8402;DHT22;4238;48.404;9.498;2024-02-28T10:20:11;6.50;48.20
8402;DHT22;4238;48.404;9.498;2024-02-28T10:22:38;6.60;49.40
8402;DHT22;4238;48.404;9.498;2024-02-28T10:25:06;6.50;50.80
8402;DHT22;4238;48.404;9.498;2024-02-28T10:27:34;6.40;57.90
8402;DHT22;4238;48.404;9.498;2024-02-28T10:30:02;6.60;58.50
8402;DHT22;4238;48.404;9.498;2024-02-28T10:32:30;6.50;45.00
8402;DHT22;4238;48.404;9.498;2024-02-28T10:34:59;6.40;60.20
8402;DHT22;4238;48.404;9.498;2024-02-28T10:37:27;6.40;62.70
8402;DHT22;4238;48.404;9.498;2024-02-28T10:39:57;6.50;52.30
8402;DHT22;4238;48.404;9.498;2024-02-28T10:42:25;6.30;47.00
8402;DHT22;4238;48.404;9.498;2024-02-28T10:44:55;6.40;64.90
8402;DHT22;4238;48.404;9.498;2024-02-28T10:47:25;6.50;55.40
8402;DHT22;4238;48.404;9.498;2024-02-28T10:49:53;6.70;55.70
8402;DHT22;4238;48.404;9.498;2024-02-28T10:52:22;6.70;47.00
8402;DHT22;4238;48.404;9.498;2024-02-28T10:54:54;6.60;46.00
8402;DHT22;4238;48.404;9.498;2024-02-28T10:57:22;6.70;41.90
8402;DHT22;4238;48.404;9.498;2024-02-28T10:59:51;6.90;37.70
8402;DHT22;4238;48.404;9.498;2024-02-28T11:02:20;7.10;27.00
8402;DHT22;4238;48.404;9.498;2024-02-28T11:04:47;7.20;6.10
8402;DHT22;4238;48.404;9.498;2024-02-28T11:07:19;7.30;9.40
8402;DHT22;4238;48.404;9.498;2024-02-28T11:09:46;7.30;1.00
8402;DHT22;4238;48.404;9.498;2024-02-28T11:12:25;7.30;22.20
8402;DHT22;4238;48.404;9.498;2024-02-28T11:14:58;7.20;20.30
8402;DHT22;4238;48.404;9.498;2024-02-28T11:17:28;7.40;24.20
8402;DHT22;4238;48.404;9.498;2024-02-28T11:19:55;7.20;16.60
8402;DHT22;4238;48.404;9.498;2024-02-28T11:22:22;7.30;1.60
8402;DHT22;4238;48.404;9.498;2024-02-28T11:24:53;7.50;10.00
8402;DHT22;4238;48.404;9.498;2024-02-28T11:27:20;7.30;1.00
8402;DHT22;4238;48.404;9.498;2024-02-28T11:29:48;7.30;1.00
8402;DHT22;4238;48.404;9.498;2024-02-28T11:32:15;7.20;1.00
8402;DHT22;4238;48.404;9.498;2024-02-28T11:34:43;7.10;2.80
8402;DHT22;4238;48.404;9.498;2024-02-28T11:37:11;7.00;1.00
8402;DHT22;4238;48.404;9.498;2024-02-28T11:39:38;7.10;1.00
8402;DHT22;4238;48.404;9.498;2024-02-28T11:42:12;7.30;1.00
8402;DHT22;4238;48.404;9.498;2024-02-28T11:44:40;7.40;1.00
8402;DHT22;4238;48.404;9.498;2024-02-28T11:47:08;7.40;1.00
8402;DHT22;4238;48.404;9.498;2024-02-28T11:49:36;7.50;1.00
8402;DHT22;4238;48.404;9.498;2024-02-28T11:52:04;7.40;1.00
8402;DHT22;4238;48.404;9.498;2024-02-28T11:54:31;7.50;1.00
8402;DHT22;4238;48.404;9.498;2024-02-28T11:56:58;7.50;1.00
8402;DHT22;4238;48.404;9.498;2024-02-28T11:59:25;7.30;1.00
8402;DHT22;4238;48.404;9.498;2024-02-28T12:01:52;7.40;1.00
8402;DHT22;4238;48.404;9.498;2024-02-28T12:04:24;7.50;9.10
8402;DHT22;4238;48.404;9.498;2024-02-28T12:06:51;7.80;1.00
8402;DHT22;4238;48.404;9.498;2024-02-28T12:09:20;8.00;1.00
8402;DHT22;4238;48.404;9.498;2024-02-28T12:11:46;8.20;1.00
8402;DHT22;4238;48.404;9.498;2024-02-28T12:14:13;8.60;1.00
8402;DHT22;4238;48.404;9.498;2024-02-28T12:16:40;8.90;1.00
8402;DHT22;4238;48.404;9.498;2024-02-28T12:19:08;9.30;1.00
8402;DHT22;4238;48.404;9.498;2024-02-28T12:21:35;9.90;99.90
8402;DHT22;4238;48.404;9.498;2024-02-28T12:24:03;9.70;91.00
8402;DHT22;4238;48.404;9.498;2024-02-28T12:26:32;9.50;99.90
8402;DHT22;4238;48.404;9.498;2024-02-28T12:28:59;9.60;92.40
8402;DHT22;4238;48.404;9.498;2024-02-28T12:31:27;9.00;1.00
8402;DHT22;4238;48.404;9.498;2024-02-28T12:33:53;8.50;99.90
8402;DHT22;4238;48.404;9.498;2024-02-28T12:36:19;8.00;1.00
8402;DHT22;4238;48.404;9.498;2024-02-28T12:38:47;8.10;1.00
8402;DHT22;4238;48.404;9.498;2024-02-28T12:41:14;8.40;1.00
8402;DHT22;4238;48.404;9.498;2024-02-28T12:43:42;8.70;1.00
8402;DHT22;4238;48.404;9.498;2024-02-28T12:46:09;8.50;1.00
8402;DHT22;4238;48.404;9.498;2024-02-28T12:48:38;8.30;1.00
8402;DHT22;4238;48.404;9.498;2024-02-28T12:51:05;8.10;1.00
8402;DHT22;4238;48.404;9.498;2024-02-28T12:53:32;7.90;1.00
8402;DHT22;4238;48.404;9.498;2024-02-28T12:56:01;7.90;1.00
8402;DHT22;4238;48.404;9.498;2024-02-28T12:58:27;7.80;1.00
8402;DHT22;4238;48.404;9.498;2024-02-28T13:00:56;7.60;1.00
8402;DHT22;4238;48.404;9.498;2024-02-28T13:03:22;7.40;1.00
8402;DHT22;4238;48.404;9.498;2024-02-28T13:05:49;7.50;1.00
8402;DHT22;4238;48.404;9.498;2024-02-28T13:08:16;7.80;1.00
8402;DHT22;4238;48.404;9.498;2024-02-28T13:10:43;7.80;1.00
8402;DHT22;4238;48.404;9.498;2024-02-28T13:13:10;7.30;1.00
8402;DHT22;4238;48.404;9.498;2024-02-28T13:15:37;7.10;1.00
8402;DHT22;4238;48.404;9.498;2024-02-28T13:18:05;6.90;1.00
8402;DHT22;4238;48.404;9.498;2024-02-28T13:20:33;7.10;1.00
8402;DHT22;4238;48.404;9.498;2024-02-28T13:22:59;7.00;1.00
8402;DHT22;4238;48.404;9.498;2024-02-28T13:25:26;7.20;1.00
8402;DHT22;4238;48.404;9.498;2024-02-28T13:27:53;7.20;1.00
8402;DHT22;4238;48.404;9.498;2024-02-28T13:30:20;7.10;1.00
8402;DHT22;4238;48.404;9.498;2024-02-28T13:32:47;7.00;1.00
8402;DHT22;4238;48.404;9.498;2024-02-28T13:35:16;7.30;1.00
8402;DHT22;4238;48.404;9.498;2024-02-28T13:37:43;7.30;1.00
8402;DHT22;4238;48.404;9.498;2024-02-28T13:40:10;7.20;1.00
8402;DHT22;4238;48.404;9.498;2024-02-28T13:42:37;7.20;1.00
8402;DHT22;4238;48.404;9.498;2024-02-28T13:45:06;7.10;1.00
8402;DHT22;4238;48.404;9.498;2024-02-28T13:47:33;7.00;1.00
8402;DHT22;4238;48.404;9.498;2024-02-28T13:50:00;7.30;1.00
8402;DHT22;4238;48.404;9.498;2024-02-28T13:52:31;7.40;1.00
8402;DHT22;4238;48.404;9.498;2024-02-28T13:54:58;7.20;1.00
8402;DHT22;4238;48.404;9.498;2024-02-28T13:57:25;6.80;1.00
8402;DHT22;4238;48.404;9.498;2024-02-28T13:59:51;7.00;1.00
8402;DHT22;4238;48.404;9.498;2024-02-28T14:02:20;6.90;1.00
8402;DHT22;4238;48.404;9.498;2024-02-28T14:04:47;7.00;1.00
8402;DHT22;4238;48.404;9.498;2024-02-28T14:07:15;7.10;1.00
8402;DHT22;4238;48.404;9.498;2024-02-28T14:09:44;7.10;1.00
8402;DHT22;4238;48.404;9.498;2024-02-28T14:12:11;7.10;1.00
8402;DHT22;4238;48.404;9.498;2024-02-28T14:14:38;6.90;1.00
8402;DHT22;4238;48.404;9.498;2024-02-28T14:17:05;7.00;1.00
8402;DHT22;4238;48.404;9.498;2024-02-28T14:19:32;6.60;7.30
8402;DHT22;4238;48.404;9.498;2024-02-28T14:22:01;6.20;26.00
8402;DHT22;4238;48.404;9.498;2024-02-28T14:24:28;6.00;45.20
8402;DHT22;4238;48.404;9.498;2024-02-28T14:26:59;5.90;54.10
8402;DHT22;4238;48.404;9.498;2024-02-28T14:29:26;5.80;55.50
8402;DHT22;4238;48.404;9.498;2024-02-28T14:31:54;5.90;59.30
8402;DHT22;4238;48.404;9.498;2024-02-28T14:34:21;5.90;55.90
8402;DHT22;4238;48.404;9.498;2024-02-28T14:36:48;5.80;63.20
8402;DHT22;4238;48.404;9.498;2024-02-28T14:39:15;5.80;67.70
8402;DHT22;4238;48.404;9.498;2024-02-28T14:41:43;5.70;74.10
8402;DHT22;4238;48.404;9.498;2024-02-28T14:44:12;5.70;70.40
8402;DHT22;4238;48.404;9.498;2024-02-28T14:46:39;5.70;72.50
8402;DHT22;4238;48.404;9.498;2024-02-28T14:49:06;5.60;71.30
8402;DHT22;4238;48.404;9.498;2024-02-28T14:51:33;5.60;77.10
8402;DHT22;4238;48.404;9.498;2024-02-28T14:54:00;5.50;78.00
8402;DHT22;4238;48.404;9.498;2024-02-28T14:56:27;5.50;84.80
8402;DHT22;4238;48.404;9.498;2024-02-28T14:58:54;5.40;83.40
8402;DHT22;4238;48.404;9.498;2024-02-28T15:01:22;5.40;87.30
8402;DHT22;4238;48.404;9.498;2024-02-28T15:03:50;5.50;90.80
8402;DHT22;4238;48.404;9.498;2024-02-28T15:06:18;5.60;82.70
8402;DHT22;4238;48.404;9.498;2024-02-28T15:08:45;5.60;76.30
8402;DHT22;4238;48.404;9.498;2024-02-28T15:11:12;5.60;75.20
8402;DHT22;4238;48.404;9.498;2024-02-28T15:13:39;5.60;77.40
8402;DHT22;4238;48.404;9.498;2024-02-28T15:16:06;5.60;71.90
8402;DHT22;4238;48.404;9.498;2024-02-28T15:18:34;5.50;76.40
8402;DHT22;4238;48.404;9.498;2024-02-28T15:21:02;5.50;79.70
8402;DHT22;4238;48.404;9.498;2024-02-28T15:23:29;5.50;86.80
8402;DHT22;4238;48.404;9.498;2024-02-28T15:25:56;5.40;76.70
8402;DHT22;4238;48.404;9.498;2024-02-28T15:28:23;5.50;79.20
8402;DHT22;4238;48.404;9.498;2024-02-28T15:30:52;5.50;89.30
8402;DHT22;4238;48.404;9.498;2024-02-28T15:33:19;5.70;79.00
8402;DHT22;4238;48.404;9.498;2024-02-28T15:35:47;5.60;71.20
8402;DHT22;4238;48.404;9.498;2024-02-28T15:38:14;5.60;71.40
8402;DHT22;4238;48.404;9.498;2024-02-28T15:40:41;5.50;71.90
8402;DHT22;4238;48.404;9.498;2024-02-28T15:43:08;5.40;76.30
8402;DHT22;4238;48.404;9.498;2024-02-28T15:45:34;5.40;80.30
8402;DHT22;4238;48.404;9.498;2024-02-28T15:48:04;5.50;79.30
8402;DHT22;4238;48.404;9.498;2024-02-28T15:50:31;5.50;68.50
8402;DHT22;4238;48.404;9.498;2024-02-28T15:52:59;5.50;63.60
8402;DHT22;4238;48.404;9.498;2024-02-28T15:55:28;5.50;62.40
8402;DHT22;4238;48.404;9.498;2024-02-28T15:57:55;5.40;61.70
8402;DHT22;4238;48.404;9.498;2024-02-28T16:00:21;5.50;60.50
8402;DHT22;4238;48.404;9.498;2024-02-28T16:02:48;5.60;60.70
8402;DHT22;4238;48.404;9.498;2024-02-28T16:05:15;5.60;55.30
8402;DHT22;4238;48.404;9.498;2024-02-28T16:07:43;5.60;53.10
8402;DHT22;4238;48.404;9.498;2024-02-28T16:10:12;5.60;59.80
8402;DHT22;4238;48.404;9.498;2024-02-28T16:12:41;5.60;62.40
8402;DHT22;4238;48.404;9.498;2024-02-28T16:15:08;5.70;65.10
8402;DHT22;4238;48.404;9.498;2024-02-28T16:17:36;5.70;60.30
8402;DHT22;4238;48.404;9.498;2024-02-28T16:20:04;5.80;56.90
8402;DHT22;4238;48.404;9.498;2024-02-28T16:22:31;6.00;54.90
8402;DHT22;4238;48.404;9.498;2024-02-28T16:24:58;5.90;47.00
8402;DHT22;4238;48.404;9.498;2024-02-28T16:27:26;5.60;58.00
8402;DHT22;4238;48.404;9.498;2024-02-28T16:29:53;5.40;72.50
8402;DHT22;4238;48.404;9.498;2024-02-28T16:32:20;5.60;80.80
8402;DHT22;4238;48.404;9.498;2024-02-28T16:34:47;5.50;71.00
8402;DHT22;4238;48.404;9.498;2024-02-28T16:37:14;5.40;75.70
8402;DHT22;4238;48.404;9.498;2024-02-28T16:39:40;5.40;79.20
8402;DHT22;4238;48.404;9.498;2024-02-28T16:42:07;5.40;77.20
8402;DHT22;4238;48.404;9.498;2024-02-28T16:44:35;5.30;78.70
8402;DHT22;4238;48.404;9.498;2024-02-28T16:47:03;5.40;83.00
8402;DHT22;4238;48.404;9.498;2024-02-28T16:49:29;5.50;75.10
8402;DHT22;4238;48.404;9.498;2024-02-28T16:51:56;5.40;76.30
8402;DHT22;4238;48.404;9.498;2024-02-28T16:54:23;5.40;77.40
8402;DHT22;4238;48.404;9.498;2024-02-28T16:56:50;5.40;78.60
8402;DHT22;4238;48.404;9.498;2024-02-28T16:59:17;5.40;71.70
8402;DHT22;4238;48.404;9.498;2024-02-28T17:01:45;5.30;84.20
8402;DHT22;4238;48.404;9.498;2024-02-28T17:04:14;5.40;83.40
8402;DHT22;4238;48.404;9.498;2024-02-28T17:06:41;5.30;79.90
8402;DHT22;4238;48.404;9.498;2024-02-28T17:09:08;5.30;88.80
8402;DHT22;4238;48.404;9.498;2024-02-28T17:11:35;5.20;85.50
8402;DHT22;4238;48.404;9.498;2024-02-28T17:14:02;5.30;89.80
8402;DHT22;4238;48.404;9.498;2024-02-28T17:16:29;5.20;85.90
8402;DHT22;4238;48.404;9.498;2024-02-28T17:18:57;5.20;86.60
8402;DHT22;4238;48.404;9.498;2024-02-28T17:21:24;5.20;87.10
8402;DHT22;4238;48.404;9.498;2024-02-28T17:23:50;5.20;87.80
8402;DHT22;4238;48.404;9.498;2024-02-28T17:26:17;5.20;89.00
8402;DHT22;4238;48.404;9.498;2024-02-28T17:28:44;5.10;85.90
8402;DHT22;4238;48.404;9.498;2024-02-28T17:31:13;5.10;87.00
8402;DHT22;4238;48.404;9.498;2024-02-28T17:33:40;5.20;81.70
8402;DHT22;4238;48.404;9.498;2024-02-28T17:36:09;5.20;86.60
8402;DHT22;4238;48.404;9.498;2024-02-28T17:38:35;5.30;71.50
8402;DHT22;4238;48.404;9.498;2024-02-28T17:41:03;5.30;69.00
8402;DHT22;4238;48.404;9.498;2024-02-28T17:43:34;5.20;70.00
8402;DHT22;4238;48.404;9.498;2024-02-28T17:46:01;5.20;77.20
8402;DHT22;4238;48.404;9.498;2024-02-28T17:48:28;5.20;77.60
8402;DHT22;4238;48.404;9.498;2024-02-28T17:50:55;5.20;74.60
8402;DHT22;4238;48.404;9.498;2024-02-28T17:53:23;5.20;69.20
8402;DHT22;4238;48.404;9.498;2024-02-28T17:55:52;5.10;72.80
8402;DHT22;4238;48.404;9.498;2024-02-28T17:58:19;5.10;72.00
8402;DHT22;4238;48.404;9.498;2024-02-28T18:00:45;4.90;68.80
8402;DHT22;4238;48.404;9.498;2024-02-28T18:03:13;4.70;81.00
8402;DHT22;4238;48.404;9.498;2024-02-28T18:05:39;4.60;90.10
8402;DHT22;4238;48.404;9.498;2024-02-28T18:08:06;4.40;85.10
8402;DHT22;4238;48.404;9.498;2024-02-28T18:10:34;4.30;89.20
8402;DHT22;4238;48.404;9.498;2024-02-28T18:13:01;4.20;88.60
8402;DHT22;4238;48.404;9.498;2024-02-28T18:15:28;4.10;94.00
8402;DHT22;4238;48.404;9.498;2024-02-28T18:17:55;4.30;99.90
8402;DHT22;4238;48.404;9.498;2024-02-28T18:20:21;4.40;90.10
8402;DHT22;4238;48.404;9.498;2024-02-28T18:22:48;4.20;85.80
8402;DHT22;4238;48.404;9.498;2024-02-28T18:25:15;4.00;96.50
8402;DHT22;4238;48.404;9.498;2024-02-28T18:27:43;4.00;95.70
8402;DHT22;4238;48.404;9.498;2024-02-28T18:30:10;4.10;94.00
8402;DHT22;4238;48.404;9.498;2024-02-28T18:32:39;4.10;94.10
8402;DHT22;4238;48.404;9.498;2024-02-28T18:35:06;3.90;93.50
8402;DHT22;4238;48.404;9.498;2024-02-28T18:37:33;3.70;99.90
8402;DHT22;4238;48.404;9.498;2024-02-28T18:40:03;3.70;99.90
8402;DHT22;4238;48.404;9.498;2024-02-28T18:42:32;3.60;99.90
8402;DHT22;4238;48.404;9.498;2024-02-28T18:45:00;3.60;99.90
8402;DHT22;4238;48.404;9.498;2024-02-28T18:47:30;3.60;99.90
8402;DHT22;4238;48.404;9.498;2024-02-28T18:49:56;3.40;97.30
8402;DHT22;4238;48.404;9.498;2024-02-28T18:52:23;3.30;95.10
8402;DHT22;4238;48.404;9.498;2024-02-28T18:54:50;3.20;93.70
8402;DHT22;4238;48.404;9.498;2024-02-28T18:57:17;3.00;98.90
8402;DHT22;4238;48.404;9.498;2024-02-28T18:59:44;2.90;98.40
8402;DHT22;4238;48.404;9.498;2024-02-28T19:02:12;2.90;99.90
8402;DHT22;4238;48.404;9.498;2024-02-28T19:04:38;2.90;99.90
8402;DHT22;4238;48.404;9.498;2024-02-28T19:07:05;2.90;99.90
8402;DHT22;4238;48.404;9.498;2024-02-28T19:09:32;2.90;99.90
8402;DHT22;4238;48.404;9.498;2024-02-28T19:11:59;2.90;99.90
8402;DHT22;4238;48.404;9.498;2024-02-28T19:14:26;3.00;99.90
8402;DHT22;4238;48.404;9.498;2024-02-28T19:16:53;3.10;99.90
8402;DHT22;4238;48.404;9.498;2024-02-28T19:19:21;3.10;99.90
8402;DHT22;4238;48.404;9.498;2024-02-28T19:21:48;3.00;99.90
8402;DHT22;4238;48.404;9.498;2024-02-28T19:24:16;3.00;99.90
8402;DHT22;4238;48.404;9.498;2024-02-28T19:26:43;3.00;99.90
8402;DHT22;4238;48.404;9.498;2024-02-28T19:29:09;2.90;97.70
8402;DHT22;4238;48.404;9.498;2024-02-28T19:31:37;2.70;91.70
8402;DHT22;4238;48.404;9.498;2024-02-28T19:34:04;2.60;93.10
8402;DHT22;4238;48.404;9.498;2024-02-28T19:36:32;2.40;97.70
8402;DHT22;4238;48.404;9.498;2024-02-28T19:38:59;2.40;99.70
8402;DHT22;4238;48.404;9.498;2024-02-28T19:41:29;2.30;99.90
8402;DHT22;4238;48.404;9.498;2024-02-28T19:43:57;2.20;99.90
8402;DHT22;4238;48.404;9.498;2024-02-28T19:46:24;2.20;99.90
8402;DHT22;4238;48.404;9.498;2024-02-28T19:48:50;2.10;99.90
8402;DHT22;4238;48.404;9.498;2024-02-28T19:51:17;2.00;99.90
8402;DHT22;4238;48.404;9.498;2024-02-28T19:53:45;2.00;99.90
8402;DHT22;4238;48.404;9.498;2024-02-28T19:56:12;1.90;99.90
8402;DHT22;4238;48.404;9.498;2024-02-28T19:58:40;1.90;99.90
8402;DHT22;4238;48.404;9.498;2024-02-28T20:01:09;1.90;99.90
8402;DHT22;4238;48.404;9.498;2024-02-28T20:03:36;1.80;99.90
8402;DHT22;4238;48.404;9.498;2024-02-28T20:06:03;1.70;99.90
8402;DHT22;4238;48.404;9.498;2024-02-28T20:08:30;1.70;99.90
8402;DHT22;4238;48.404;9.498;2024-02-28T20:10:58;1.60;99.90
8402;DHT22;4238;48.404;9.498;2024-02-28T20:13:25;1.60;99.90
8402;DHT22;4238;48.404;9.498;2024-02-28T20:15:52;1.50;99.90
8402;DHT22;4238;48.404;9.498;2024-02-28T20:18:19;1.50;99.90
8402;DHT22;4238;48.404;9.498;2024-02-28T20:20:49;1.50;99.90
8402;DHT22;4238;48.404;9.498;2024-02-28T20:23:16;1.50;99.90
8402;DHT22;4238;48.404;9.498;2024-02-28T20:25:43;1.50;99.90
8402;DHT22;4238;48.404;9.498;2024-02-28T20:28:11;1.50;99.90
8402;DHT22;4238;48.404;9.498;2024-02-28T20:30:38;1.50;99.90
8402;DHT22;4238;48.404;9.498;2024-02-28T20:33:05;1.40;99.90
8402;DHT22;4238;48.404;9.498;2024-02-28T20:35:32;1.40;99.90
8402;DHT22;4238;48.404;9.498;2024-02-28T20:37:58;1.40;99.90
8402;DHT22;4238;48.404;9.498;2024-02-28T20:40:25;1.30;99.90
8402;DHT22;4238;48.404;9.498;2024-02-28T20:42:52;1.30;99.90
8402;DHT22;4238;48.404;9.498;2024-02-28T20:45:20;1.30;99.90
8402;DHT22;4238;48.404;9.498;2024-02-28T20:47:47;1.30;99.90
8402;DHT22;4238;48.404;9.498;2024-02-28T20:50:14;1.30;99.90
8402;DHT22;4238;48.404;9.498;2024-02-28T20:52:41;1.20;99.90
8402;DHT22;4238;48.404;9.498;2024-02-28T20:55:08;1.30;99.90
8402;DHT22;4238;48.404;9.498;2024-02-28T20:57:35;1.20;99.90
8402;DHT22;4238;48.404;9.498;2024-02-28T21:00:05;1.20;99.90
8402;DHT22;4238;48.404;9.498;2024-02-28T21:02:34;1.20;99.90
8402;DHT22;4238;48.404;9.498;2024-02-28T21:05:01;1.40;99.90
8402;DHT22;4238;48.404;9.498;2024-02-28T21:07:28;1.40;99.90
8402;DHT22;4238;48.404;9.498;2024-02-28T21:09:55;1.30;94.80
8402;DHT22;4238;48.404;9.498;2024-02-28T21:12:22;1.10;93.30
8402;DHT22;4238;48.404;9.498;2024-02-28T21:14:50;1.10;99.90
8402;DHT22;4238;48.404;9.498;2024-02-28T21:17:17;1.10;99.90
8402;DHT22;4238;48.404;9.498;2024-02-28T21:19:46;0.90;99.90
8402;DHT22;4238;48.404;9.498;2024-02-28T21:22:13;1.10;99.90